createdAt,value
2023-06-30T00:02:13.848Z,2.10
2023-06-30T00:04:40.247Z,2.30
2023-06-30T00:07:06.830Z,2.63
2023-06-30T00:09:33.393Z,2.17
2023-06-30T00:11:59.796Z,1.80
2023-06-30T00:14:26.168Z,2.30
2023-06-30T00:16:52.528Z,2.22
2023-06-30T00:19:19.705Z,2.30
2023-06-30T00:21:46.721Z,2.90
2023-06-30T00:24:14.174Z,2.38
2023-06-30T00:26:41.133Z,2.00
2023-06-30T00:29:07.976Z,2.10
2023-06-30T00:31:34.530Z,1.92
2023-06-30T00:34:01.035Z,1.95
2023-06-30T00:36:27.515Z,1.95
2023-06-30T00:38:55.887Z,1.67
2023-06-30T00:41:22.908Z,1.48
2023-06-30T00:43:49.377Z,1.90
2023-06-30T00:46:17.559Z,2.25
2023-06-30T00:48:45.197Z,1.40
2023-06-30T00:51:12.838Z,1.55
2023-06-30T00:53:39.796Z,1.70
2023-06-30T00:56:06.164Z,1.30
2023-06-30T00:58:33.597Z,1.70
2023-06-30T01:01:11.196Z,1.23
2023-06-30T01:03:45.249Z,1.23
2023-06-30T01:06:25.406Z,1.00
2023-06-30T01:09:18.701Z,1.30
2023-06-30T01:11:45.414Z,1.10
2023-06-30T01:14:14.019Z,1.20
2023-06-30T01:16:42.505Z,1.05
2023-06-30T01:19:20.662Z,1.10
2023-06-30T01:21:48.478Z,1.13
2023-06-30T01:24:21.422Z,1.00
2023-06-30T01:26:50.621Z,1.10
2023-06-30T01:29:17.764Z,1.17
2023-06-30T01:31:46.075Z,1.00
2023-06-30T01:34:12.468Z,1.27
2023-06-30T01:36:38.827Z,1.00
2023-06-30T01:39:05.501Z,0.90
2023-06-30T01:41:32.092Z,1.08
2023-06-30T01:43:59.134Z,1.02
2023-06-30T01:46:25.860Z,1.13
2023-06-30T01:48:52.692Z,1.02
2023-06-30T01:51:19.233Z,0.98
2023-06-30T01:53:45.658Z,1.13
2023-06-30T01:56:12.418Z,1.20
2023-06-30T01:58:38.792Z,1.40
2023-06-30T02:01:05.132Z,1.80
2023-06-30T02:03:31.650Z,1.30
2023-06-30T02:05:58.386Z,1.70
2023-06-30T02:08:24.773Z,1.40
2023-06-30T02:10:51.159Z,1.55
2023-06-30T02:13:17.553Z,1.65
2023-06-30T02:15:44.110Z,1.50
2023-06-30T02:18:10.637Z,1.40
2023-06-30T02:20:37.020Z,1.27
2023-06-30T02:23:03.776Z,1.50
2023-06-30T02:25:30.240Z,1.60
2023-06-30T02:27:56.626Z,1.48
2023-06-30T02:30:23.032Z,1.42
2023-06-30T02:32:49.489Z,1.60
2023-06-30T02:35:16.084Z,1.92
2023-06-30T02:37:42.544Z,1.45
2023-06-30T02:40:10.217Z,1.30
2023-06-30T02:42:36.582Z,1.50
2023-06-30T02:45:04.922Z,1.70
2023-06-30T02:47:31.355Z,2.10
2023-06-30T02:49:57.784Z,1.75
2023-06-30T02:52:24.178Z,1.83
2023-06-30T02:54:50.529Z,1.80
2023-06-30T02:57:16.954Z,2.42
2023-06-30T02:59:43.342Z,1.58
2023-06-30T03:02:10.016Z,2.15
2023-06-30T03:04:36.569Z,1.60
2023-06-30T03:07:03.167Z,2.47
2023-06-30T03:09:29.672Z,1.83
2023-06-30T03:11:56.026Z,1.92
2023-06-30T03:14:22.377Z,2.05
2023-06-30T03:16:48.789Z,2.40
2023-06-30T03:19:15.444Z,2.17
2023-06-30T03:21:41.889Z,1.95
2023-06-30T03:24:08.288Z,2.30
2023-06-30T03:26:34.654Z,2.53
2023-06-30T03:29:02.496Z,2.13
2023-06-30T03:31:28.970Z,2.03
2023-06-30T03:33:55.452Z,2.83
2023-06-30T03:36:21.900Z,2.50
2023-06-30T03:38:48.267Z,2.33
2023-06-30T03:41:14.681Z,2.35
2023-06-30T03:43:41.208Z,2.25
2023-06-30T03:46:08.071Z,2.47
2023-06-30T03:48:34.451Z,2.42
2023-06-30T03:51:00.830Z,2.70
2023-06-30T03:53:27.198Z,2.67
2023-06-30T03:55:53.619Z,2.10
2023-06-30T03:58:19.990Z,2.33
2023-06-30T04:00:46.336Z,2.47
2023-06-30T04:03:12.999Z,2.30
2023-06-30T04:05:39.698Z,2.60
2023-06-30T04:08:06.367Z,2.80
2023-06-30T04:10:32.906Z,2.45
2023-06-30T04:12:59.250Z,2.40
2023-06-30T04:15:25.639Z,2.28
2023-06-30T04:17:52.031Z,2.95
2023-06-30T04:20:18.376Z,2.45
2023-06-30T04:22:44.716Z,3.08
2023-06-30T04:25:12.169Z,2.53
2023-06-30T04:27:38.724Z,2.67
2023-06-30T04:30:09.710Z,2.28
2023-06-30T04:32:36.434Z,2.28
2023-06-30T04:35:03.007Z,2.35
2023-06-30T04:37:32.350Z,2.60
2023-06-30T04:39:59.579Z,2.55
2023-06-30T04:42:29.048Z,2.42
2023-06-30T04:44:55.821Z,2.67
2023-06-30T04:47:22.192Z,2.30
2023-06-30T04:49:48.565Z,2.25
2023-06-30T04:52:15.033Z,2.10
2023-06-30T04:54:42.206Z,1.98
2023-06-30T04:57:08.706Z,2.00
2023-06-30T04:59:35.093Z,2.25
2023-06-30T05:02:01.593Z,2.50
2023-06-30T05:04:28.271Z,2.00
2023-06-30T05:06:54.977Z,1.83
2023-06-30T05:09:23.536Z,1.90
2023-06-30T05:11:50.577Z,1.95
2023-06-30T05:14:17.603Z,1.83
2023-06-30T05:16:44.085Z,2.00
2023-06-30T05:19:10.467Z,2.10
2023-06-30T05:21:36.845Z,1.90
2023-06-30T05:24:03.413Z,2.10
2023-06-30T05:26:29.846Z,1.92
2023-06-30T05:29:04.314Z,2.22
2023-06-30T05:31:31.894Z,1.75
2023-06-30T05:33:58.352Z,1.92
2023-06-30T05:36:24.697Z,3.05
2023-06-30T05:38:51.061Z,2.15
2023-06-30T05:41:17.443Z,2.35
2023-06-30T05:43:44.263Z,1.73
2023-06-30T05:46:10.611Z,1.73
2023-06-30T05:48:37.016Z,2.03
2023-06-30T05:51:03.551Z,1.98
2023-06-30T05:53:29.928Z,2.25
2023-06-30T05:55:57.008Z,2.10
2023-06-30T05:58:25.782Z,1.92
2023-06-30T06:00:52.177Z,1.83
2023-06-30T06:03:18.754Z,1.40
2023-06-30T06:05:45.946Z,1.42
2023-06-30T06:08:12.876Z,2.55
2023-06-30T06:10:39.331Z,1.40
2023-06-30T06:13:05.742Z,1.65
2023-06-30T06:15:32.179Z,1.45
2023-06-30T06:17:58.673Z,1.40
2023-06-30T06:20:25.097Z,1.88
2023-06-30T06:22:51.480Z,1.13
2023-06-30T06:25:17.892Z,1.25
2023-06-30T06:27:44.252Z,1.50
2023-06-30T06:30:11.272Z,1.05
2023-06-30T06:32:37.843Z,1.40
2023-06-30T06:35:04.697Z,1.25
2023-06-30T06:37:31.044Z,1.23
2023-06-30T06:39:57.497Z,1.17
2023-06-30T06:42:23.871Z,1.55
2023-06-30T06:44:50.295Z,2.15
2023-06-30T06:47:54.437Z,1.48
2023-06-30T06:50:21.312Z,1.10
2023-06-30T06:52:47.669Z,1.00
2023-06-30T06:55:14.151Z,1.65
2023-06-30T06:57:40.836Z,0.90
2023-06-30T07:00:07.840Z,0.60
2023-06-30T07:02:34.195Z,1.10
2023-06-30T07:05:00.693Z,1.05
2023-06-30T07:07:29.318Z,0.90
2023-06-30T07:09:57.799Z,1.30
2023-06-30T07:12:24.160Z,1.10
2023-06-30T07:14:50.559Z,1.15
2023-06-30T07:17:17.008Z,0.80
2023-06-30T07:19:43.391Z,1.13
2023-06-30T07:22:09.795Z,1.00
2023-06-30T07:24:43.364Z,1.60
2023-06-30T07:27:10.438Z,0.73
2023-06-30T07:29:36.791Z,0.90
2023-06-30T07:32:03.320Z,1.23
2023-06-30T07:34:31.316Z,0.60
2023-06-30T07:36:57.687Z,0.70
2023-06-30T07:39:24.105Z,1.45
2023-06-30T07:41:52.399Z,0.98
2023-06-30T07:44:20.840Z,0.88
2023-06-30T07:46:47.181Z,0.95
2023-06-30T07:49:13.660Z,0.70
2023-06-30T07:51:40.398Z,0.80
2023-06-30T07:54:08.592Z,0.60
2023-06-30T07:56:35.045Z,1.10
2023-06-30T07:59:01.471Z,1.00
2023-06-30T08:01:28.004Z,0.57
2023-06-30T08:03:55.190Z,0.90
2023-06-30T08:06:21.677Z,1.13
2023-06-30T08:08:48.133Z,0.98
2023-06-30T08:11:14.541Z,0.75
2023-06-30T08:13:40.905Z,0.57
2023-06-30T08:16:07.341Z,0.85
2023-06-30T08:18:34.317Z,0.80
2023-06-30T08:21:01.874Z,0.60
2023-06-30T08:23:28.354Z,0.80
2023-06-30T08:25:56.237Z,0.80
2023-06-30T08:28:22.980Z,0.73
2023-06-30T08:30:49.773Z,1.13
2023-06-30T08:33:26.547Z,0.85
2023-06-30T08:36:03.030Z,0.50
2023-06-30T08:38:29.697Z,0.75
2023-06-30T08:40:56.284Z,1.05
2023-06-30T08:43:25.972Z,0.75
2023-06-30T08:45:55.084Z,0.85
2023-06-30T08:48:22.367Z,0.90
2023-06-30T08:50:48.912Z,0.80
2023-06-30T08:53:19.002Z,0.70
2023-06-30T08:55:47.896Z,0.77
2023-06-30T08:58:25.363Z,0.40
2023-06-30T09:00:56.757Z,0.68
2023-06-30T09:03:23.839Z,0.65
2023-06-30T09:05:59.414Z,0.63
2023-06-30T09:08:35.657Z,0.68
2023-06-30T09:11:05.319Z,0.75
2023-06-30T09:13:33.471Z,0.40
2023-06-30T09:16:00.336Z,0.60
2023-06-30T09:18:27.021Z,0.73
2023-06-30T09:20:57.047Z,0.60
2023-06-30T09:23:24.085Z,0.50
2023-06-30T09:25:53.118Z,0.63
2023-06-30T09:28:19.537Z,0.80
2023-06-30T09:30:47.388Z,0.60
2023-06-30T09:33:15.934Z,0.77
2023-06-30T09:35:45.107Z,1.00
2023-06-30T09:38:13.542Z,0.73
2023-06-30T09:40:47.434Z,0.82
2023-06-30T09:43:18.452Z,0.82
2023-06-30T09:46:00.379Z,0.88
2023-06-30T09:48:31.052Z,1.05
2023-06-30T09:50:57.738Z,1.00
2023-06-30T09:53:24.175Z,0.85
2023-06-30T09:55:52.613Z,0.95
2023-06-30T09:58:20.732Z,1.13
2023-06-30T10:00:48.113Z,0.77
2023-06-30T10:03:20.567Z,0.80
2023-06-30T10:05:49.778Z,0.90
2023-06-30T10:08:16.826Z,0.65
2023-06-30T10:10:43.839Z,0.65
2023-06-30T10:13:16.583Z,0.85
2023-06-30T10:15:44.979Z,0.60
2023-06-30T10:18:13.356Z,0.82
2023-06-30T10:20:48.394Z,0.70
2023-06-30T10:23:20.697Z,0.90
2023-06-30T10:25:47.962Z,0.60
2023-06-30T10:28:15.724Z,0.82
2023-06-30T10:30:43.202Z,0.60
2023-06-30T10:33:09.627Z,0.85
2023-06-30T10:35:37.196Z,0.80
2023-06-30T10:38:04.308Z,0.73
2023-06-30T10:40:31.316Z,1.17
2023-06-30T10:42:59.289Z,0.90
2023-06-30T10:45:30.292Z,0.82
2023-06-30T10:47:56.996Z,1.23
2023-06-30T10:50:24.460Z,1.00
2023-06-30T10:52:53.212Z,0.90
2023-06-30T10:55:23.988Z,0.88
2023-06-30T10:57:52.764Z,0.70
2023-06-30T11:00:23.012Z,0.80
2023-06-30T11:03:00.360Z,0.97
2023-06-30T11:05:29.793Z,1.00
2023-06-30T11:08:02.108Z,0.80
2023-06-30T11:10:31.289Z,1.00
2023-06-30T11:12:57.939Z,1.48
2023-06-30T11:15:42.807Z,1.13
2023-06-30T11:18:16.799Z,1.10
2023-06-30T11:21:03.200Z,0.95
2023-06-30T11:23:40.320Z,1.02
2023-06-30T11:26:14.435Z,1.02
2023-06-30T11:28:42.893Z,1.17
2023-06-30T11:31:09.314Z,1.00
2023-06-30T11:33:43.273Z,0.90
2023-06-30T11:36:14.140Z,1.10
2023-06-30T11:38:50.672Z,1.23
2023-06-30T11:41:23.367Z,1.10
2023-06-30T11:43:57.306Z,1.27
2023-06-30T11:46:24.432Z,1.38
2023-06-30T11:48:51.104Z,1.02
2023-06-30T11:51:18.171Z,1.40
2023-06-30T11:53:47.404Z,1.35
2023-06-30T11:56:13.890Z,1.00
2023-06-30T11:58:53.877Z,1.05
2023-06-30T12:01:21.342Z,1.00
2023-06-30T12:03:58.362Z,1.27
2023-06-30T12:06:29.247Z,1.25
2023-06-30T12:08:55.665Z,1.02
2023-06-30T12:11:22.531Z,1.10
2023-06-30T12:13:49.304Z,1.33
2023-06-30T12:16:15.687Z,1.30
2023-06-30T12:18:45.639Z,1.30
2023-06-30T12:21:14.099Z,1.30
2023-06-30T12:23:44.829Z,1.20
2023-06-30T12:26:12.492Z,1.13
2023-06-30T12:28:39.228Z,1.52
2023-06-30T12:31:05.778Z,1.10
2023-06-30T12:33:33.261Z,1.33
2023-06-30T12:35:59.629Z,1.08
2023-06-30T12:38:26.048Z,1.75
2023-06-30T12:40:52.486Z,1.77
2023-06-30T12:43:19.010Z,1.30
2023-06-30T12:45:45.495Z,1.48
2023-06-30T12:48:11.881Z,1.13
2023-06-30T12:50:38.326Z,1.70
2023-06-30T12:53:06.755Z,1.70
2023-06-30T12:55:33.242Z,1.45
2023-06-30T12:57:59.583Z,1.30
2023-06-30T13:00:26.015Z,1.15
2023-06-30T13:02:52.487Z,1.40
2023-06-30T13:05:19.040Z,2.05
2023-06-30T13:07:45.578Z,1.40
2023-06-30T13:10:15.316Z,1.45
2023-06-30T13:12:42.158Z,1.73
2023-06-30T13:15:10.002Z,1.70
2023-06-30T13:17:36.651Z,1.20
2023-06-30T13:20:05.584Z,1.40
2023-06-30T13:22:31.975Z,1.20
2023-06-30T13:24:58.322Z,1.40
2023-06-30T13:27:24.688Z,1.25
2023-06-30T13:29:52.725Z,1.40
2023-06-30T13:32:19.898Z,1.30
2023-06-30T13:34:47.920Z,1.30
2023-06-30T13:37:14.923Z,1.08
2023-06-30T13:39:41.467Z,1.48
2023-06-30T13:42:09.453Z,1.30
2023-06-30T13:44:36.602Z,1.00
2023-06-30T13:47:03.174Z,1.85
2023-06-30T13:49:29.590Z,1.40
2023-06-30T13:51:56.116Z,1.98
2023-06-30T13:54:23.172Z,1.30
2023-06-30T13:56:50.489Z,1.30
2023-06-30T13:59:17.287Z,2.03
2023-06-30T14:01:43.792Z,1.35
2023-06-30T14:04:10.291Z,1.23
2023-06-30T14:06:36.748Z,1.05
2023-06-30T14:09:03.656Z,1.30
2023-06-30T14:11:30.032Z,1.40
2023-06-30T14:13:57.392Z,1.02
2023-06-30T14:16:24.762Z,1.42
2023-06-30T14:18:51.272Z,1.30
2023-06-30T14:21:19.422Z,1.33
2023-06-30T14:23:46.109Z,1.40
2023-06-30T14:26:12.698Z,1.25
2023-06-30T14:28:39.274Z,1.25
2023-06-30T14:31:05.873Z,1.33
2023-06-30T14:33:32.622Z,1.25
2023-06-30T14:35:59.653Z,1.33
2023-06-30T14:38:26.154Z,1.40
2023-06-30T14:40:52.554Z,1.67
2023-06-30T14:43:18.960Z,1.70
2023-06-30T14:45:45.694Z,1.52
2023-06-30T14:48:12.418Z,1.70
2023-06-30T14:50:38.756Z,1.55
2023-06-30T14:53:05.208Z,1.40
2023-06-30T14:55:31.614Z,1.30
2023-06-30T14:57:58.606Z,1.33
2023-06-30T15:00:25.123Z,1.10
2023-06-30T15:02:51.714Z,1.42
2023-06-30T15:05:18.256Z,1.40
2023-06-30T15:07:47.268Z,1.38
2023-06-30T15:10:14.159Z,1.23
2023-06-30T15:12:40.579Z,1.77
2023-06-30T15:15:07.520Z,1.52
2023-06-30T15:17:33.981Z,1.50
2023-06-30T15:20:00.498Z,1.60
2023-06-30T15:22:30.114Z,1.63
2023-06-30T15:24:58.501Z,1.90
2023-06-30T15:27:25.603Z,1.90
2023-06-30T15:29:52.503Z,1.88
2023-06-30T15:32:19.408Z,2.60
2023-06-30T15:34:46.241Z,2.20
2023-06-30T15:37:12.890Z,2.42
2023-06-30T15:39:40.126Z,2.28
2023-06-30T15:42:12.701Z,2.17
2023-06-30T15:44:39.417Z,2.35
2023-06-30T15:47:05.765Z,2.88
2023-06-30T15:49:32.175Z,2.47
2023-06-30T15:51:58.561Z,2.28
2023-06-30T15:54:24.928Z,2.95
2023-06-30T15:56:51.312Z,2.35
2023-06-30T15:59:17.737Z,2.35
2023-06-30T16:01:44.156Z,2.88
2023-06-30T16:04:10.653Z,2.28
2023-06-30T16:06:37.102Z,2.25
2023-06-30T16:09:03.562Z,2.00
2023-06-30T16:11:29.959Z,2.50
2023-06-30T16:13:56.323Z,2.40
2023-06-30T16:16:22.704Z,2.15
2023-06-30T16:18:51.029Z,2.35
2023-06-30T16:21:18.250Z,2.20
2023-06-30T16:23:45.122Z,2.00
2023-06-30T16:26:11.566Z,2.45
2023-06-30T16:28:37.941Z,2.20
2023-06-30T16:31:04.307Z,1.90
2023-06-30T16:33:30.855Z,1.90
2023-06-30T16:35:57.414Z,2.20
2023-06-30T16:38:23.765Z,2.13
2023-06-30T16:40:50.243Z,1.70
2023-06-30T16:43:16.586Z,1.75
2023-06-30T16:45:43.128Z,1.40
2023-06-30T16:48:09.651Z,1.67
2023-06-30T16:50:36.056Z,1.58
2023-06-30T16:53:02.608Z,1.70
2023-06-30T16:55:28.992Z,1.50
2023-06-30T16:57:55.359Z,1.40
2023-06-30T17:00:21.850Z,1.73
2023-06-30T17:02:49.918Z,1.83
2023-06-30T17:05:16.753Z,2.00
2023-06-30T17:07:43.182Z,2.03
2023-06-30T17:10:10.102Z,1.40
2023-06-30T17:12:39.208Z,1.40
2023-06-30T17:15:08.779Z,1.95
2023-06-30T17:17:35.382Z,1.45
2023-06-30T17:20:03.986Z,1.52
2023-06-30T17:22:30.748Z,1.17
2023-06-30T17:25:04.819Z,1.48
2023-06-30T17:27:32.280Z,2.38
2023-06-30T17:29:58.767Z,1.48
2023-06-30T17:32:25.190Z,1.60
2023-06-30T17:34:51.609Z,1.52
2023-06-30T17:37:17.969Z,1.92
2023-06-30T17:39:44.402Z,1.48
2023-06-30T17:42:10.970Z,1.60
2023-06-30T17:44:38.472Z,1.20
2023-06-30T17:47:05.121Z,1.20
2023-06-30T17:49:34.124Z,1.23
2023-06-30T17:52:01.432Z,1.30
2023-06-30T17:54:28.856Z,1.60
2023-06-30T17:56:55.878Z,1.60
2023-06-30T17:59:22.777Z,1.13
2023-06-30T18:01:49.677Z,1.13
2023-06-30T18:04:16.266Z,1.50
2023-06-30T18:07:03.664Z,1.25
2023-06-30T18:09:31.072Z,1.00
2023-06-30T18:12:01.676Z,1.30
2023-06-30T18:14:29.454Z,1.10
2023-06-30T18:16:56.050Z,1.20
2023-06-30T18:19:23.416Z,1.33
2023-06-30T18:21:50.954Z,1.15
2023-06-30T18:24:17.732Z,1.25
2023-06-30T18:26:50.158Z,1.20
2023-06-30T18:29:18.502Z,1.55
2023-06-30T18:31:44.922Z,1.30
2023-06-30T18:34:11.511Z,1.40
2023-06-30T18:36:37.914Z,1.23
2023-06-30T18:39:05.290Z,1.50
2023-06-30T18:41:31.791Z,1.10
2023-06-30T18:43:58.424Z,1.48
2023-06-30T18:46:26.638Z,1.20
2023-06-30T18:48:53.573Z,1.33
2023-06-30T18:51:20.311Z,1.25
2023-06-30T18:53:46.674Z,1.42
2023-06-30T18:56:13.103Z,1.45
2023-06-30T18:58:39.479Z,1.35
2023-06-30T19:01:05.878Z,1.10
2023-06-30T19:03:32.540Z,1.40
2023-06-30T19:06:01.982Z,1.40
2023-06-30T19:08:29.320Z,1.15
2023-06-30T19:10:56.515Z,1.13
2023-06-30T19:13:23.372Z,1.42
2023-06-30T19:15:50.172Z,1.45
2023-06-30T19:18:20.289Z,1.40
2023-06-30T19:20:48.194Z,2.08
2023-06-30T19:23:15.074Z,1.50
2023-06-30T19:25:44.270Z,1.00
2023-06-30T19:28:10.900Z,1.58
2023-06-30T19:30:37.347Z,1.25
2023-06-30T19:33:04.264Z,1.42
2023-06-30T19:35:30.743Z,1.45
2023-06-30T19:37:57.151Z,1.52
2023-06-30T19:40:24.797Z,1.02
2023-06-30T19:42:51.729Z,2.15
2023-06-30T19:45:18.105Z,1.80
2023-06-30T19:47:45.969Z,1.38
2023-06-30T19:50:14.530Z,1.45
2023-06-30T19:52:40.989Z,1.38
2023-06-30T19:55:07.848Z,1.05
2023-06-30T19:57:34.281Z,1.25
2023-06-30T20:00:00.943Z,1.35
2023-06-30T20:02:27.402Z,1.25
2023-06-30T20:04:56.264Z,1.38
2023-06-30T20:07:22.685Z,1.00
2023-06-30T20:09:49.079Z,1.70
2023-06-30T20:12:15.471Z,1.45
2023-06-30T20:14:41.834Z,1.35
2023-06-30T20:17:10.350Z,1.55
2023-06-30T20:19:39.386Z,1.20
2023-06-30T20:22:06.756Z,1.20
2023-06-30T20:24:33.268Z,1.10
2023-06-30T20:27:00.963Z,1.30
2023-06-30T20:29:27.500Z,0.77
2023-06-30T20:31:54.142Z,2.03
2023-06-30T20:34:20.508Z,1.20
2023-06-30T20:36:46.894Z,1.45
2023-06-30T20:39:13.300Z,1.80
2023-06-30T20:41:39.663Z,1.42
2023-06-30T20:44:07.340Z,1.13
2023-06-30T20:46:34.722Z,1.30
2023-06-30T20:49:01.396Z,1.38
2023-06-30T20:51:27.856Z,1.30
2023-06-30T20:53:54.200Z,1.42
2023-06-30T20:56:20.540Z,1.30
2023-06-30T20:58:46.907Z,1.40
2023-06-30T21:01:14.479Z,1.40
2023-06-30T21:03:41.065Z,1.20
2023-06-30T21:06:07.833Z,1.27
2023-06-30T21:08:34.205Z,1.75
2023-06-30T21:11:00.548Z,1.27
2023-06-30T21:13:27.919Z,1.48
2023-06-30T21:15:54.311Z,1.20
2023-06-30T21:18:20.724Z,1.27
2023-06-30T21:20:47.358Z,1.50
2023-06-30T21:23:14.144Z,1.77
2023-06-30T21:25:40.564Z,1.83
2023-06-30T21:28:06.961Z,1.63
2023-06-30T21:30:33.315Z,1.60
2023-06-30T21:33:00.605Z,1.52
2023-06-30T21:35:28.111Z,1.40
2023-06-30T21:37:54.522Z,1.83
2023-06-30T21:40:20.870Z,1.50
2023-06-30T21:42:47.219Z,1.70
2023-06-30T21:45:13.577Z,1.38
2023-06-30T21:47:39.964Z,1.67
2023-06-30T21:50:07.179Z,1.70
2023-06-30T21:52:33.702Z,1.73
2023-06-30T21:55:00.031Z,1.48
2023-06-30T21:57:26.412Z,2.30
2023-06-30T21:59:53.112Z,1.75
2023-06-30T22:02:19.549Z,1.30
2023-06-30T22:04:46.132Z,1.27
2023-06-30T22:07:12.662Z,1.30
2023-06-30T22:09:39.031Z,1.50
2023-06-30T22:12:06.500Z,1.58
2023-06-30T22:14:32.859Z,1.45
2023-06-30T22:16:59.215Z,1.95
2023-06-30T22:19:25.565Z,1.50
2023-06-30T22:21:52.013Z,1.65
2023-06-30T22:24:18.404Z,1.48
2023-06-30T22:26:44.784Z,1.23
2023-06-30T22:29:11.329Z,1.90
2023-06-30T22:31:37.744Z,1.50
2023-06-30T22:34:04.214Z,1.75
2023-06-30T22:36:30.606Z,1.80
2023-06-30T22:38:56.952Z,1.77
2023-06-30T22:41:23.505Z,1.38
2023-06-30T22:43:49.901Z,1.63
2023-06-30T22:46:16.242Z,1.40
2023-06-30T22:48:42.646Z,1.63
2023-06-30T22:51:09.015Z,1.40
2023-06-30T22:53:35.480Z,1.50
2023-06-30T22:56:03.514Z,2.03
2023-06-30T22:58:29.868Z,1.50
2023-06-30T23:00:56.359Z,1.48
2023-06-30T23:03:22.989Z,1.70
2023-06-30T23:05:49.723Z,1.42
2023-06-30T23:08:16.172Z,1.58
2023-06-30T23:10:42.550Z,1.35
2023-06-30T23:13:08.952Z,1.30
2023-06-30T23:15:35.379Z,1.50
2023-06-30T23:18:01.867Z,1.30
2023-06-30T23:20:28.245Z,1.75
2023-06-30T23:22:54.668Z,1.40
2023-06-30T23:25:24.049Z,1.60
2023-06-30T23:27:55.288Z,1.38
2023-06-30T23:30:28.650Z,1.35
2023-06-30T23:32:58.219Z,1.48
2023-06-30T23:35:26.092Z,1.52
2023-06-30T23:37:52.638Z,1.42
2023-06-30T23:40:19.015Z,1.50
2023-06-30T23:42:45.506Z,1.77
2023-06-30T23:45:11.866Z,1.27
2023-06-30T23:47:38.467Z,1.30
2023-06-30T23:50:05.400Z,1.30
2023-06-30T23:52:32.801Z,1.33
2023-06-30T23:54:59.182Z,1.42
2023-06-30T23:57:25.614Z,1.27
2023-06-30T23:59:52.297Z,1.40
